Terminal Aerodrome Forecast
Issued by NWS Portland, OR

Home | Current Version | Previous Version | Text Only | Print | Product List | Glossary On
Versions: 1 2 3 4 5 6 7 8 9 10 11 12 13 14 15 16 17 18 19 20 21 22 23 24 25 26 27 28
243
FTUS46 KPQR 231738
TAFTTD
TAF
KTTD 231738Z 2318/2418 10015G21KT P6SM FEW300
     FM232100 09021G30KT P6SM FEW300
     FM240900 09014KT P6SM SKC
     FM241700 09012G20KT P6SM SKC=

USA.gov is the U.S. government's official web portal to all federal, state and local government web resources and services.